sensor_id;sensor_type;location;lat;lon;timestamp;P1;durP1;ratioP1;P2;durP2;ratioP2
21848;SDS011;11089;49.852;19.700;2022-10-16T00:02:52;19.23;;;10.05;;
21848;SDS011;11089;49.852;19.700;2022-10-16T00:05:52;28.60;;;11.57;;
21848;SDS011;11089;49.852;19.700;2022-10-16T00:08:53;16.40;;;10.40;;
21848;SDS011;11089;49.852;19.700;2022-10-16T00:11:54;15.20;;;9.82;;
21848;SDS011;11089;49.852;19.700;2022-10-16T00:14:55;18.30;;;9.77;;
21848;SDS011;11089;49.852;19.700;2022-10-16T00:17:56;14.90;;;9.50;;
21848;SDS011;11089;49.852;19.700;2022-10-16T00:21:07;21.95;;;10.40;;
21848;SDS011;11089;49.852;19.700;2022-10-16T00:24:14;19.05;;;10.40;;
21848;SDS011;11089;49.852;19.700;2022-10-16T00:27:15;14.82;;;9.32;;
21848;SDS011;11089;49.852;19.700;2022-10-16T00:30:16;16.77;;;9.77;;
21848;SDS011;11089;49.852;19.700;2022-10-16T00:33:17;17.92;;;9.57;;
21848;SDS011;11089;49.852;19.700;2022-10-16T00:36:19;16.25;;;9.60;;
21848;SDS011;11089;49.852;19.700;2022-10-16T00:39:22;18.35;;;9.75;;
21848;SDS011;11089;49.852;19.700;2022-10-16T00:42:23;16.88;;;9.10;;
21848;SDS011;11089;49.852;19.700;2022-10-16T00:45:24;14.50;;;10.13;;
21848;SDS011;11089;49.852;19.700;2022-10-16T00:48:25;16.42;;;9.90;;
21848;SDS011;11089;49.852;19.700;2022-10-16T00:51:28;15.85;;;9.68;;
21848;SDS011;11089;49.852;19.700;2022-10-16T00:54:36;19.30;;;10.52;;
21848;SDS011;11089;49.852;19.700;2022-10-16T00:57:37;21.67;;;9.82;;
21848;SDS011;11089;49.852;19.700;2022-10-16T01:00:39;18.00;;;10.15;;
21848;SDS011;11089;49.852;19.700;2022-10-16T01:03:40;25.13;;;10.40;;
21848;SDS011;11089;49.852;19.700;2022-10-16T01:06:43;19.38;;;10.90;;
21848;SDS011;11089;49.852;19.700;2022-10-16T01:13:06;15.23;;;9.15;;
21848;SDS011;11089;49.852;19.700;2022-10-16T01:17:12;14.07;;;9.07;;
21848;SDS011;11089;49.852;19.700;2022-10-16T01:23:10;14.73;;;9.25;;
21848;SDS011;11089;49.852;19.700;2022-10-16T01:29:48;11.98;;;8.95;;
21848;SDS011;11089;49.852;19.700;2022-10-16T01:32:52;12.35;;;8.40;;
21848;SDS011;11089;49.852;19.700;2022-10-16T01:36:05;15.25;;;8.18;;
21848;SDS011;11089;49.852;19.700;2022-10-16T01:39:25;12.65;;;8.52;;
21848;SDS011;11089;49.852;19.700;2022-10-16T01:42:34;11.57;;;7.60;;
21848;SDS011;11089;49.852;19.700;2022-10-16T01:45:42;14.75;;;8.52;;
21848;SDS011;11089;49.852;19.700;2022-10-16T01:48:46;14.15;;;8.98;;
21848;SDS011;11089;49.852;19.700;2022-10-16T01:51:50;12.13;;;8.00;;
21848;SDS011;11089;49.852;19.700;2022-10-16T01:54:56;13.50;;;8.00;;
21848;SDS011;11089;49.852;19.700;2022-10-16T01:57:57;12.15;;;8.55;;
21848;SDS011;11089;49.852;19.700;2022-10-16T02:01:01;13.18;;;8.25;;
21848;SDS011;11089;49.852;19.700;2022-10-16T02:04:07;13.02;;;8.15;;
21848;SDS011;11089;49.852;19.700;2022-10-16T02:07:29;12.27;;;9.07;;
21848;SDS011;11089;49.852;19.700;2022-10-16T02:10:30;11.27;;;8.32;;
21848;SDS011;11089;49.852;19.700;2022-10-16T02:13:33;12.18;;;8.43;;
21848;SDS011;11089;49.852;19.700;2022-10-16T02:16:43;15.88;;;8.73;;
21848;SDS011;11089;49.852;19.700;2022-10-16T02:19:46;12.60;;;8.25;;
21848;SDS011;11089;49.852;19.700;2022-10-16T02:22:50;13.20;;;8.60;;
21848;SDS011;11089;49.852;19.700;2022-10-16T02:25:51;13.00;;;8.32;;
21848;SDS011;11089;49.852;19.700;2022-10-16T02:28:55;11.65;;;7.70;;
21848;SDS011;11089;49.852;19.700;2022-10-16T02:32:04;11.68;;;7.95;;
21848;SDS011;11089;49.852;19.700;2022-10-16T02:35:08;11.90;;;7.35;;
21848;SDS011;11089;49.852;19.700;2022-10-16T02:38:10;13.57;;;8.85;;
21848;SDS011;11089;49.852;19.700;2022-10-16T02:41:12;12.50;;;7.85;;
21848;SDS011;11089;49.852;19.700;2022-10-16T02:44:14;10.90;;;7.18;;
21848;SDS011;11089;49.852;19.700;2022-10-16T02:47:15;14.45;;;7.22;;
21848;SDS011;11089;49.852;19.700;2022-10-16T02:50:16;11.85;;;8.05;;
21848;SDS011;11089;49.852;19.700;2022-10-16T02:53:17;15.02;;;8.43;;
21848;SDS011;11089;49.852;19.700;2022-10-16T02:56:18;12.27;;;7.85;;
21848;SDS011;11089;49.852;19.700;2022-10-16T02:59:19;11.18;;;7.63;;
21848;SDS011;11089;49.852;19.700;2022-10-16T03:02:20;14.23;;;8.25;;
21848;SDS011;11089;49.852;19.700;2022-10-16T03:05:21;12.23;;;8.13;;
21848;SDS011;11089;49.852;19.700;2022-10-16T03:08:21;14.10;;;8.30;;
21848;SDS011;11089;49.852;19.700;2022-10-16T03:11:25;11.52;;;7.32;;
21848;SDS011;11089;49.852;19.700;2022-10-16T03:14:26;14.57;;;7.28;;
21848;SDS011;11089;49.852;19.700;2022-10-16T03:17:27;11.95;;;7.07;;
21848;SDS011;11089;49.852;19.700;2022-10-16T03:20:28;14.77;;;7.95;;
21848;SDS011;11089;49.852;19.700;2022-10-16T03:23:28;14.25;;;7.80;;
21848;SDS011;11089;49.852;19.700;2022-10-16T03:26:29;12.48;;;7.60;;
21848;SDS011;11089;49.852;19.700;2022-10-16T03:29:30;11.82;;;7.47;;
21848;SDS011;11089;49.852;19.700;2022-10-16T03:32:32;11.45;;;8.07;;
21848;SDS011;11089;49.852;19.700;2022-10-16T03:35:33;16.25;;;8.13;;
21848;SDS011;11089;49.852;19.700;2022-10-16T03:41:40;14.95;;;7.72;;
21848;SDS011;11089;49.852;19.700;2022-10-16T03:44:41;14.82;;;7.97;;
21848;SDS011;11089;49.852;19.700;2022-10-16T03:47:42;16.38;;;9.40;;
21848;SDS011;11089;49.852;19.700;2022-10-16T03:50:42;12.95;;;7.95;;
21848;SDS011;11089;49.852;19.700;2022-10-16T03:53:43;13.48;;;8.05;;
21848;SDS011;11089;49.852;19.700;2022-10-16T03:56:44;13.63;;;8.43;;
21848;SDS011;11089;49.852;19.700;2022-10-16T03:59:45;13.98;;;8.52;;
21848;SDS011;11089;49.852;19.700;2022-10-16T04:02:46;10.13;;;7.90;;
21848;SDS011;11089;49.852;19.700;2022-10-16T04:05:46;12.13;;;8.52;;
21848;SDS011;11089;49.852;19.700;2022-10-16T04:08:47;12.75;;;8.32;;
21848;SDS011;11089;49.852;19.700;2022-10-16T04:11:48;12.30;;;8.00;;
21848;SDS011;11089;49.852;19.700;2022-10-16T04:14:49;13.50;;;7.72;;
21848;SDS011;11089;49.852;19.700;2022-10-16T04:17:50;12.20;;;7.18;;
21848;SDS011;11089;49.852;19.700;2022-10-16T04:20:51;14.40;;;7.45;;
21848;SDS011;11089;49.852;19.700;2022-10-16T04:23:53;11.18;;;7.50;;
21848;SDS011;11089;49.852;19.700;2022-10-16T04:26:54;12.48;;;7.65;;
21848;SDS011;11089;49.852;19.700;2022-10-16T04:29:54;10.90;;;7.40;;
21848;SDS011;11089;49.852;19.700;2022-10-16T04:32:55;11.60;;;7.20;;
21848;SDS011;11089;49.852;19.700;2022-10-16T04:35:57;12.25;;;7.70;;
21848;SDS011;11089;49.852;19.700;2022-10-16T04:38:58;11.38;;;7.03;;
21848;SDS011;11089;49.852;19.700;2022-10-16T04:41:59;15.57;;;7.70;;
21848;SDS011;11089;49.852;19.700;2022-10-16T04:45:00;11.63;;;7.45;;
21848;SDS011;11089;49.852;19.700;2022-10-16T04:48:01;10.45;;;7.88;;
21848;SDS011;11089;49.852;19.700;2022-10-16T04:51:02;14.63;;;7.38;;
21848;SDS011;11089;49.852;19.700;2022-10-16T04:54:03;12.98;;;6.97;;
21848;SDS011;11089;49.852;19.700;2022-10-16T04:57:03;11.95;;;7.57;;
21848;SDS011;11089;49.852;19.700;2022-10-16T05:00:05;12.70;;;7.55;;
21848;SDS011;11089;49.852;19.700;2022-10-16T05:03:06;14.73;;;8.43;;
21848;SDS011;11089;49.852;19.700;2022-10-16T05:06:08;12.82;;;7.88;;
21848;SDS011;11089;49.852;19.700;2022-10-16T05:09:09;13.27;;;7.30;;
21848;SDS011;11089;49.852;19.700;2022-10-16T05:12:10;15.10;;;8.35;;
21848;SDS011;11089;49.852;19.700;2022-10-16T05:15:11;11.27;;;7.82;;
21848;SDS011;11089;49.852;19.700;2022-10-16T05:18:12;11.88;;;7.40;;
21848;SDS011;11089;49.852;19.700;2022-10-16T05:21:12;12.20;;;8.07;;
21848;SDS011;11089;49.852;19.700;2022-10-16T05:24:13;12.95;;;8.10;;
21848;SDS011;11089;49.852;19.700;2022-10-16T05:27:14;37.75;;;8.73;;
21848;SDS011;11089;49.852;19.700;2022-10-16T05:30:19;13.75;;;7.65;;
21848;SDS011;11089;49.852;19.700;2022-10-16T05:33:20;12.95;;;6.70;;
21848;SDS011;11089;49.852;19.700;2022-10-16T05:36:22;10.65;;;7.63;;
21848;SDS011;11089;49.852;19.700;2022-10-16T05:39:23;11.93;;;7.70;;
21848;SDS011;11089;49.852;19.700;2022-10-16T05:42:24;12.80;;;7.53;;
21848;SDS011;11089;49.852;19.700;2022-10-16T05:45:25;11.02;;;7.20;;
21848;SDS011;11089;49.852;19.700;2022-10-16T05:48:26;10.68;;;7.43;;
21848;SDS011;11089;49.852;19.700;2022-10-16T05:51:27;11.80;;;6.82;;
21848;SDS011;11089;49.852;19.700;2022-10-16T05:54:28;11.85;;;7.15;;
21848;SDS011;11089;49.852;19.700;2022-10-16T05:57:29;10.57;;;7.20;;
21848;SDS011;11089;49.852;19.700;2022-10-16T06:00:30;14.10;;;7.32;;
21848;SDS011;11089;49.852;19.700;2022-10-16T06:03:31;11.48;;;6.85;;
21848;SDS011;11089;49.852;19.700;2022-10-16T06:06:32;10.10;;;6.38;;
21848;SDS011;11089;49.852;19.700;2022-10-16T06:09:32;8.82;;;6.43;;
21848;SDS011;11089;49.852;19.700;2022-10-16T06:12:33;11.15;;;6.60;;
21848;SDS011;11089;49.852;19.700;2022-10-16T06:15:34;10.68;;;7.20;;
21848;SDS011;11089;49.852;19.700;2022-10-16T06:18:35;11.25;;;6.72;;
21848;SDS011;11089;49.852;19.700;2022-10-16T06:21:36;9.48;;;6.30;;
21848;SDS011;11089;49.852;19.700;2022-10-16T06:24:37;10.35;;;6.03;;
21848;SDS011;11089;49.852;19.700;2022-10-16T06:27:41;8.93;;;6.35;;
21848;SDS011;11089;49.852;19.700;2022-10-16T06:30:42;11.05;;;6.30;;
21848;SDS011;11089;49.852;19.700;2022-10-16T06:33:49;8.88;;;6.10;;
21848;SDS011;11089;49.852;19.700;2022-10-16T06:36:51;19.17;;;6.63;;
21848;SDS011;11089;49.852;19.700;2022-10-16T06:39:52;11.43;;;6.32;;
21848;SDS011;11089;49.852;19.700;2022-10-16T06:42:54;10.45;;;6.40;;
21848;SDS011;11089;49.852;19.700;2022-10-16T06:45:56;8.23;;;5.63;;
21848;SDS011;11089;49.852;19.700;2022-10-16T06:48:57;10.98;;;6.47;;
21848;SDS011;11089;49.852;19.700;2022-10-16T06:51:58;11.10;;;6.18;;
21848;SDS011;11089;49.852;19.700;2022-10-16T06:54:59;14.65;;;6.07;;
21848;SDS011;11089;49.852;19.700;2022-10-16T06:58:00;9.85;;;6.28;;
21848;SDS011;11089;49.852;19.700;2022-10-16T07:01:01;9.18;;;5.97;;
21848;SDS011;11089;49.852;19.700;2022-10-16T07:04:02;8.52;;;5.68;;
21848;SDS011;11089;49.852;19.700;2022-10-16T07:07:03;9.60;;;5.93;;
21848;SDS011;11089;49.852;19.700;2022-10-16T07:10:04;8.85;;;6.05;;
21848;SDS011;11089;49.852;19.700;2022-10-16T07:13:05;8.27;;;5.53;;
21848;SDS011;11089;49.852;19.700;2022-10-16T07:16:17;10.23;;;5.70;;
21848;SDS011;11089;49.852;19.700;2022-10-16T07:19:19;7.75;;;5.35;;
21848;SDS011;11089;49.852;19.700;2022-10-16T07:22:20;8.57;;;5.50;;
21848;SDS011;11089;49.852;19.700;2022-10-16T07:25:21;7.97;;;5.15;;
21848;SDS011;11089;49.852;19.700;2022-10-16T07:28:22;9.65;;;5.75;;
21848;SDS011;11089;49.852;19.700;2022-10-16T07:31:23;11.70;;;5.65;;
21848;SDS011;11089;49.852;19.700;2022-10-16T07:34:25;7.30;;;5.10;;
21848;SDS011;11089;49.852;19.700;2022-10-16T07:37:26;11.23;;;5.88;;
21848;SDS011;11089;49.852;19.700;2022-10-16T07:40:27;13.25;;;5.93;;
21848;SDS011;11089;49.852;19.700;2022-10-16T07:43:28;8.32;;;6.03;;
21848;SDS011;11089;49.852;19.700;2022-10-16T07:46:29;7.45;;;5.40;;
21848;SDS011;11089;49.852;19.700;2022-10-16T07:49:31;13.20;;;5.57;;
21848;SDS011;11089;49.852;19.700;2022-10-16T07:52:32;9.95;;;5.18;;
21848;SDS011;11089;49.852;19.700;2022-10-16T07:55:33;8.13;;;5.00;;
21848;SDS011;11089;49.852;19.700;2022-10-16T07:58:34;10.98;;;5.53;;
21848;SDS011;11089;49.852;19.700;2022-10-16T08:01:38;9.80;;;5.75;;
21848;SDS011;11089;49.852;19.700;2022-10-16T08:04:39;8.70;;;5.60;;
21848;SDS011;11089;49.852;19.700;2022-10-16T08:07:40;10.95;;;5.82;;
21848;SDS011;11089;49.852;19.700;2022-10-16T08:10:41;14.70;;;6.30;;
21848;SDS011;11089;49.852;19.700;2022-10-16T08:13:42;11.50;;;6.05;;
21848;SDS011;11089;49.852;19.700;2022-10-16T08:16:43;7.90;;;5.07;;
21848;SDS011;11089;49.852;19.700;2022-10-16T08:19:45;7.50;;;5.55;;
21848;SDS011;11089;49.852;19.700;2022-10-16T08:22:47;9.73;;;5.18;;
21848;SDS011;11089;49.852;19.700;2022-10-16T08:25:48;9.80;;;5.55;;
21848;SDS011;11089;49.852;19.700;2022-10-16T08:28:51;9.20;;;5.55;;
21848;SDS011;11089;49.852;19.700;2022-10-16T08:31:52;7.40;;;5.00;;
21848;SDS011;11089;49.852;19.700;2022-10-16T08:34:53;10.40;;;5.20;;
21848;SDS011;11089;49.852;19.700;2022-10-16T08:37:54;8.90;;;5.30;;
21848;SDS011;11089;49.852;19.700;2022-10-16T08:41:17;7.32;;;5.13;;
21848;SDS011;11089;49.852;19.700;2022-10-16T08:48:45;10.23;;;4.95;;
21848;SDS011;11089;49.852;19.700;2022-10-16T08:51:30;10.48;;;5.53;;
21848;SDS011;11089;49.852;19.700;2022-10-16T08:54:36;6.72;;;4.68;;
21848;SDS011;11089;49.852;19.700;2022-10-16T08:57:42;11.48;;;5.90;;
21848;SDS011;11089;49.852;19.700;2022-10-16T09:00:43;11.38;;;5.30;;
21848;SDS011;11089;49.852;19.700;2022-10-16T09:04:56;11.23;;;5.80;;
21848;SDS011;11089;49.852;19.700;2022-10-16T09:10:40;12.70;;;6.20;;
21848;SDS011;11089;49.852;19.700;2022-10-16T09:17:01;9.18;;;5.47;;
21848;SDS011;11089;49.852;19.700;2022-10-16T09:23:46;10.88;;;5.32;;
21848;SDS011;11089;49.852;19.700;2022-10-16T09:26:47;9.70;;;5.50;;
21848;SDS011;11089;49.852;19.700;2022-10-16T09:29:48;10.32;;;5.53;;
21848;SDS011;11089;49.852;19.700;2022-10-16T09:32:52;12.32;;;5.68;;
21848;SDS011;11089;49.852;19.700;2022-10-16T09:35:55;8.27;;;5.10;;
21848;SDS011;11089;49.852;19.700;2022-10-16T09:39:02;10.02;;;5.15;;
21848;SDS011;11089;49.852;19.700;2022-10-16T09:42:05;9.90;;;5.30;;
21848;SDS011;11089;49.852;19.700;2022-10-16T09:45:18;8.93;;;5.32;;
21848;SDS011;11089;49.852;19.700;2022-10-16T09:48:21;6.35;;;5.32;;
21848;SDS011;11089;49.852;19.700;2022-10-16T09:51:26;7.43;;;4.57;;
21848;SDS011;11089;49.852;19.700;2022-10-16T09:54:35;11.10;;;5.20;;
21848;SDS011;11089;49.852;19.700;2022-10-16T09:57:36;10.43;;;5.03;;
21848;SDS011;11089;49.852;19.700;2022-10-16T10:00:37;9.57;;;5.00;;
21848;SDS011;11089;49.852;19.700;2022-10-16T10:03:48;8.18;;;4.75;;
21848;SDS011;11089;49.852;19.700;2022-10-16T10:06:55;8.82;;;5.45;;
21848;SDS011;11089;49.852;19.700;2022-10-16T10:09:57;15.07;;;5.40;;
21848;SDS011;11089;49.852;19.700;2022-10-16T10:12:58;9.05;;;5.03;;
21848;SDS011;11089;49.852;19.700;2022-10-16T10:15:59;8.45;;;5.32;;
21848;SDS011;11089;49.852;19.700;2022-10-16T10:19:00;5.85;;;4.53;;
21848;SDS011;11089;49.852;19.700;2022-10-16T10:22:01;12.57;;;4.80;;
21848;SDS011;11089;49.852;19.700;2022-10-16T10:35:02;9.77;;;5.22;;
21848;SDS011;11089;49.852;19.700;2022-10-16T10:38:11;11.10;;;4.50;;
21848;SDS011;11089;49.852;19.700;2022-10-16T10:47:54;8.50;;;5.47;;
21848;SDS011;11089;49.852;19.700;2022-10-16T10:51:05;10.40;;;4.85;;
21848;SDS011;11089;49.852;19.700;2022-10-16T10:54:22;14.15;;;5.72;;
21848;SDS011;11089;49.852;19.700;2022-10-16T10:57:29;11.27;;;5.68;;
21848;SDS011;11089;49.852;19.700;2022-10-16T11:00:42;12.27;;;5.82;;
21848;SDS011;11089;49.852;19.700;2022-10-16T11:06:59;9.65;;;5.55;;
21848;SDS011;11089;49.852;19.700;2022-10-16T11:13:24;8.55;;;5.38;;
21848;SDS011;11089;49.852;19.700;2022-10-16T11:16:30;13.65;;;6.25;;
21848;SDS011;11089;49.852;19.700;2022-10-16T11:19:51;12.70;;;5.40;;
21848;SDS011;11089;49.852;19.700;2022-10-16T11:23:00;9.38;;;5.55;;
21848;SDS011;11089;49.852;19.700;2022-10-16T11:26:14;12.43;;;5.80;;
21848;SDS011;11089;49.852;19.700;2022-10-16T11:29:29;9.35;;;5.50;;
21848;SDS011;11089;49.852;19.700;2022-10-16T11:32:33;7.82;;;5.80;;
21848;SDS011;11089;49.852;19.700;2022-10-16T11:36:08;9.55;;;5.20;;
21848;SDS011;11089;49.852;19.700;2022-10-16T11:39:31;16.42;;;5.88;;
21848;SDS011;11089;49.852;19.700;2022-10-16T11:42:40;11.75;;;5.43;;
21848;SDS011;11089;49.852;19.700;2022-10-16T11:45:49;21.92;;;6.38;;
21848;SDS011;11089;49.852;19.700;2022-10-16T11:49:06;28.38;;;6.05;;
21848;SDS011;11089;49.852;19.700;2022-10-16T11:52:23;14.48;;;5.80;;
21848;SDS011;11089;49.852;19.700;2022-10-16T11:55:35;13.10;;;5.45;;
21848;SDS011;11089;49.852;19.700;2022-10-16T12:05:28;17.35;;;6.43;;
21848;SDS011;11089;49.852;19.700;2022-10-16T12:08:48;11.57;;;6.53;;
21848;SDS011;11089;49.852;19.700;2022-10-16T12:11:49;15.23;;;6.05;;
21848;SDS011;11089;49.852;19.700;2022-10-16T12:14:59;17.17;;;7.45;;
21848;SDS011;11089;49.852;19.700;2022-10-16T12:18:02;37.97;;;14.18;;
21848;SDS011;11089;49.852;19.700;2022-10-16T12:21:03;30.33;;;12.18;;
21848;SDS011;11089;49.852;19.700;2022-10-16T12:24:18;39.13;;;15.30;;
21848;SDS011;11089;49.852;19.700;2022-10-16T12:27:34;21.88;;;11.30;;
21848;SDS011;11089;49.852;19.700;2022-10-16T12:30:35;23.15;;;10.35;;
21848;SDS011;11089;49.852;19.700;2022-10-16T12:33:37;19.38;;;8.85;;
21848;SDS011;11089;49.852;19.700;2022-10-16T12:36:41;28.45;;;8.98;;
21848;SDS011;11089;49.852;19.700;2022-10-16T12:39:45;14.43;;;6.78;;
21848;SDS011;11089;49.852;19.700;2022-10-16T12:42:53;12.52;;;6.97;;
21848;SDS011;11089;49.852;19.700;2022-10-16T12:55:42;15.55;;;6.03;;
21848;SDS011;11089;49.852;19.700;2022-10-16T13:05:44;10.10;;;5.35;;
21848;SDS011;11089;49.852;19.700;2022-10-16T13:12:37;16.88;;;5.78;;
21848;SDS011;11089;49.852;19.700;2022-10-16T13:26:21;12.93;;;4.53;;
21848;SDS011;11089;49.852;19.700;2022-10-16T13:29:30;12.43;;;4.40;;
21848;SDS011;11089;49.852;19.700;2022-10-16T13:32:32;15.00;;;4.68;;
21848;SDS011;11089;49.852;19.700;2022-10-16T13:35:34;9.85;;;5.03;;
21848;SDS011;11089;49.852;19.700;2022-10-16T13:38:35;15.27;;;5.10;;
21848;SDS011;11089;49.852;19.700;2022-10-16T13:54:11;16.05;;;6.65;;
21848;SDS011;11089;49.852;19.700;2022-10-16T13:57:15;12.52;;;6.00;;
21848;SDS011;11089;49.852;19.700;2022-10-16T14:00:18;10.07;;;5.75;;
21848;SDS011;11089;49.852;19.700;2022-10-16T14:03:24;15.60;;;6.05;;
21848;SDS011;11089;49.852;19.700;2022-10-16T14:06:26;11.73;;;7.28;;
21848;SDS011;11089;49.852;19.700;2022-10-16T14:09:28;11.68;;;5.80;;
21848;SDS011;11089;49.852;19.700;2022-10-16T14:12:30;9.10;;;5.18;;
21848;SDS011;11089;49.852;19.700;2022-10-16T14:15:31;18.50;;;5.32;;
21848;SDS011;11089;49.852;19.700;2022-10-16T14:18:34;13.50;;;5.60;;
21848;SDS011;11089;49.852;19.700;2022-10-16T14:21:38;15.95;;;5.45;;
21848;SDS011;11089;49.852;19.700;2022-10-16T14:24:41;12.70;;;5.15;;
21848;SDS011;11089;49.852;19.700;2022-10-16T14:27:42;17.50;;;5.93;;
21848;SDS011;11089;49.852;19.700;2022-10-16T14:33:59;12.40;;;5.65;;
21848;SDS011;11089;49.852;19.700;2022-10-16T14:37:01;13.02;;;5.65;;
21848;SDS011;11089;49.852;19.700;2022-10-16T14:40:15;12.35;;;6.05;;
21848;SDS011;11089;49.852;19.700;2022-10-16T14:43:22;11.43;;;6.57;;
21848;SDS011;11089;49.852;19.700;2022-10-16T14:46:35;16.50;;;6.72;;
21848;SDS011;11089;49.852;19.700;2022-10-16T14:49:38;14.82;;;6.30;;
21848;SDS011;11089;49.852;19.700;2022-10-16T14:52:38;14.70;;;5.60;;
21848;SDS011;11089;49.852;19.700;2022-10-16T14:55:40;12.13;;;5.95;;
21848;SDS011;11089;49.852;19.700;2022-10-16T14:58:41;11.80;;;5.57;;
21848;SDS011;11089;49.852;19.700;2022-10-16T15:01:43;14.40;;;5.88;;
21848;SDS011;11089;49.852;19.700;2022-10-16T15:04:45;19.00;;;5.80;;
21848;SDS011;11089;49.852;19.700;2022-10-16T15:07:46;12.23;;;5.75;;
21848;SDS011;11089;49.852;19.700;2022-10-16T15:10:47;16.15;;;6.45;;
21848;SDS011;11089;49.852;19.700;2022-10-16T15:13:48;9.32;;;5.65;;
21848;SDS011;11089;49.852;19.700;2022-10-16T15:16:48;12.80;;;5.57;;
21848;SDS011;11089;49.852;19.700;2022-10-16T15:19:49;15.18;;;6.20;;
21848;SDS011;11089;49.852;19.700;2022-10-16T15:22:51;14.45;;;6.20;;
21848;SDS011;11089;49.852;19.700;2022-10-16T15:25:53;11.02;;;6.63;;
21848;SDS011;11089;49.852;19.700;2022-10-16T15:28:55;17.38;;;6.15;;
21848;SDS011;11089;49.852;19.700;2022-10-16T15:31:56;11.98;;;6.03;;
21848;SDS011;11089;49.852;19.700;2022-10-16T15:34:57;10.73;;;5.97;;
21848;SDS011;11089;49.852;19.700;2022-10-16T15:37:58;11.05;;;6.55;;
21848;SDS011;11089;49.852;19.700;2022-10-16T15:40:58;15.95;;;6.32;;
21848;SDS011;11089;49.852;19.700;2022-10-16T15:43:59;11.43;;;6.70;;
21848;SDS011;11089;49.852;19.700;2022-10-16T15:47:00;16.40;;;6.72;;
21848;SDS011;11089;49.852;19.700;2022-10-16T15:50:01;13.93;;;6.75;;
21848;SDS011;11089;49.852;19.700;2022-10-16T15:53:03;12.18;;;5.63;;
21848;SDS011;11089;49.852;19.700;2022-10-16T15:56:05;12.52;;;7.00;;
21848;SDS011;11089;49.852;19.700;2022-10-16T15:59:07;13.10;;;6.50;;
21848;SDS011;11089;49.852;19.700;2022-10-16T16:02:08;14.68;;;6.50;;
21848;SDS011;11089;49.852;19.700;2022-10-16T16:05:10;12.00;;;7.47;;
21848;SDS011;11089;49.852;19.700;2022-10-16T16:08:11;12.80;;;7.32;;
21848;SDS011;11089;49.852;19.700;2022-10-16T16:11:13;14.95;;;6.82;;
21848;SDS011;11089;49.852;19.700;2022-10-16T16:14:15;12.35;;;6.85;;
21848;SDS011;11089;49.852;19.700;2022-10-16T16:17:16;9.88;;;6.88;;
21848;SDS011;11089;49.852;19.700;2022-10-16T16:20:17;16.58;;;7.00;;
21848;SDS011;11089;49.852;19.700;2022-10-16T16:23:17;27.20;;;7.68;;
21848;SDS011;11089;49.852;19.700;2022-10-16T16:26:23;10.73;;;7.75;;
21848;SDS011;11089;49.852;19.700;2022-10-16T16:29:26;13.88;;;7.32;;
21848;SDS011;11089;49.852;19.700;2022-10-16T16:32:26;14.90;;;8.05;;
21848;SDS011;11089;49.852;19.700;2022-10-16T16:35:27;13.02;;;6.80;;
21848;SDS011;11089;49.852;19.700;2022-10-16T16:38:28;15.85;;;7.30;;
21848;SDS011;11089;49.852;19.700;2022-10-16T16:41:30;18.00;;;7.78;;
21848;SDS011;11089;49.852;19.700;2022-10-16T16:44:31;13.35;;;8.77;;
21848;SDS011;11089;49.852;19.700;2022-10-16T16:47:33;14.02;;;7.75;;
21848;SDS011;11089;49.852;19.700;2022-10-16T16:50:38;12.77;;;7.63;;
21848;SDS011;11089;49.852;19.700;2022-10-16T16:53:39;15.02;;;9.18;;
21848;SDS011;11089;49.852;19.700;2022-10-16T16:56:40;17.48;;;8.88;;
21848;SDS011;11089;49.852;19.700;2022-10-16T16:59:43;24.90;;;8.18;;
21848;SDS011;11089;49.852;19.700;2022-10-16T17:02:43;14.60;;;8.68;;
21848;SDS011;11089;49.852;19.700;2022-10-16T17:05:59;13.52;;;8.45;;
21848;SDS011;11089;49.852;19.700;2022-10-16T17:09:02;12.30;;;7.45;;
21848;SDS011;11089;49.852;19.700;2022-10-16T17:12:04;15.35;;;8.18;;
21848;SDS011;11089;49.852;19.700;2022-10-16T17:15:05;11.98;;;7.20;;
21848;SDS011;11089;49.852;19.700;2022-10-16T17:18:06;11.00;;;7.78;;
21848;SDS011;11089;49.852;19.700;2022-10-16T17:21:08;18.38;;;7.65;;
21848;SDS011;11089;49.852;19.700;2022-10-16T17:24:09;11.90;;;7.63;;
21848;SDS011;11089;49.852;19.700;2022-10-16T17:27:10;14.48;;;7.72;;
21848;SDS011;11089;49.852;19.700;2022-10-16T17:30:11;13.63;;;8.00;;
21848;SDS011;11089;49.852;19.700;2022-10-16T17:33:12;20.63;;;10.68;;
21848;SDS011;11089;49.852;19.700;2022-10-16T17:36:13;19.45;;;11.35;;
21848;SDS011;11089;49.852;19.700;2022-10-16T17:39:15;26.50;;;14.35;;
21848;SDS011;11089;49.852;19.700;2022-10-16T17:42:17;18.30;;;11.15;;
21848;SDS011;11089;49.852;19.700;2022-10-16T17:45:18;18.30;;;10.18;;
21848;SDS011;11089;49.852;19.700;2022-10-16T17:48:18;89.82;;;53.10;;
21848;SDS011;11089;49.852;19.700;2022-10-16T17:51:24;72.65;;;40.17;;
21848;SDS011;11089;49.852;19.700;2022-10-16T17:54:27;37.58;;;22.33;;
21848;SDS011;11089;49.852;19.700;2022-10-16T17:57:28;27.02;;;16.23;;
21848;SDS011;11089;49.852;19.700;2022-10-16T18:00:29;27.05;;;15.85;;
21848;SDS011;11089;49.852;19.700;2022-10-16T18:03:30;25.77;;;14.32;;
21848;SDS011;11089;49.852;19.700;2022-10-16T18:06:31;22.40;;;14.68;;
21848;SDS011;11089;49.852;19.700;2022-10-16T18:09:32;50.78;;;35.58;;
21848;SDS011;11089;49.852;19.700;2022-10-16T18:12:34;30.08;;;18.25;;
21848;SDS011;11089;49.852;19.700;2022-10-16T18:15:35;28.48;;;15.98;;
21848;SDS011;11089;49.852;19.700;2022-10-16T18:18:39;26.73;;;15.32;;
21848;SDS011;11089;49.852;19.700;2022-10-16T18:21:42;38.25;;;20.73;;
21848;SDS011;11089;49.852;19.700;2022-10-16T18:24:43;25.20;;;13.63;;
21848;SDS011;11089;49.852;19.700;2022-10-16T18:27:43;22.80;;;13.75;;
21848;SDS011;11089;49.852;19.700;2022-10-16T18:30:44;21.15;;;13.18;;
21848;SDS011;11089;49.852;19.700;2022-10-16T18:33:53;38.72;;;25.13;;
21848;SDS011;11089;49.852;19.700;2022-10-16T18:36:55;23.00;;;14.45;;
21848;SDS011;11089;49.852;19.700;2022-10-16T18:39:56;24.38;;;15.38;;
21848;SDS011;11089;49.852;19.700;2022-10-16T18:42:57;28.08;;;14.98;;
21848;SDS011;11089;49.852;19.700;2022-10-16T18:45:59;25.95;;;14.45;;
21848;SDS011;11089;49.852;19.700;2022-10-16T18:49:01;29.60;;;19.13;;
21848;SDS011;11089;49.852;19.700;2022-10-16T18:52:03;22.70;;;14.18;;
21848;SDS011;11089;49.852;19.700;2022-10-16T18:55:05;20.05;;;13.23;;
21848;SDS011;11089;49.852;19.700;2022-10-16T18:58:06;21.88;;;13.07;;
21848;SDS011;11089;49.852;19.700;2022-10-16T19:01:10;20.27;;;11.73;;
21848;SDS011;11089;49.852;19.700;2022-10-16T19:04:13;31.15;;;19.27;;
21848;SDS011;11089;49.852;19.700;2022-10-16T19:07:15;25.48;;;15.10;;
21848;SDS011;11089;49.852;19.700;2022-10-16T19:10:16;33.65;;;13.85;;
21848;SDS011;11089;49.852;19.700;2022-10-16T19:13:17;19.42;;;11.35;;
21848;SDS011;11089;49.852;19.700;2022-10-16T19:16:20;17.40;;;10.68;;
21848;SDS011;11089;49.852;19.700;2022-10-16T19:19:24;19.67;;;9.43;;
21848;SDS011;11089;49.852;19.700;2022-10-16T19:22:25;18.23;;;9.80;;
21848;SDS011;11089;49.852;19.700;2022-10-16T19:25:29;14.85;;;9.57;;
21848;SDS011;11089;49.852;19.700;2022-10-16T19:28:30;14.55;;;9.10;;
21848;SDS011;11089;49.852;19.700;2022-10-16T19:31:31;20.45;;;9.95;;
21848;SDS011;11089;49.852;19.700;2022-10-16T19:34:33;15.88;;;10.05;;
21848;SDS011;11089;49.852;19.700;2022-10-16T19:37:34;16.15;;;9.52;;